createdAt,value
2023-01-21T00:00:39.239Z,1002.59
2023-01-21T00:01:39.239Z,1002.61
2023-01-21T00:02:39.252Z,1002.64
2023-01-21T00:03:39.300Z,1002.60
2023-01-21T00:04:39.199Z,1002.68
2023-01-21T00:05:39.189Z,1002.67
2023-01-21T00:06:39.169Z,1002.69
2023-01-21T00:07:39.188Z,1002.70
2023-01-21T00:08:39.151Z,1002.75
2023-01-21T00:09:39.139Z,1002.78
2023-01-21T00:10:39.154Z,1002.81
2023-01-21T00:11:39.124Z,1002.84
2023-01-21T00:12:39.113Z,1002.85
2023-01-21T00:13:39.113Z,1002.87
2023-01-21T00:14:39.084Z,1002.87
2023-01-21T00:15:39.118Z,1002.88
2023-01-21T00:16:39.061Z,1002.91
2023-01-21T00:17:39.061Z,1002.91
2023-01-21T00:18:39.084Z,1002.90
2023-01-21T00:19:39.033Z,1002.93
2023-01-21T00:20:39.017Z,1002.91
2023-01-21T00:21:39.024Z,1002.97
2023-01-21T00:22:39.011Z,1002.95
2023-01-21T00:23:39.021Z,1002.93
2023-01-21T00:24:38.974Z,1002.98
2023-01-21T00:25:38.981Z,1003.02
2023-01-21T00:26:38.949Z,1002.99
2023-01-21T00:27:38.939Z,1002.97
2023-01-21T00:28:38.920Z,1003.05
2023-01-21T00:29:38.944Z,1003.05
2023-01-21T00:30:38.936Z,1003.04
2023-01-21T00:31:39.078Z,1003.13
2023-01-21T00:32:38.886Z,1003.13
2023-01-21T00:33:38.869Z,1003.12
2023-01-21T00:34:38.865Z,1003.15
2023-01-21T00:35:38.860Z,1003.20
2023-01-21T00:36:38.846Z,1003.16
2023-01-21T00:37:38.829Z,1003.21
2023-01-21T00:38:38.837Z,1003.16
2023-01-21T00:39:38.803Z,1003.20
2023-01-21T00:40:38.821Z,1003.17
2023-01-21T00:41:38.784Z,1003.17
2023-01-21T00:42:38.768Z,1003.23
2023-01-21T00:43:38.764Z,1003.23
2023-01-21T00:44:38.762Z,1003.23
2023-01-21T00:45:38.763Z,1003.26
2023-01-21T00:46:38.805Z,1003.25
2023-01-21T00:47:38.725Z,1003.25
2023-01-21T00:48:38.715Z,1003.26
2023-01-21T00:49:38.703Z,1003.31
2023-01-21T00:50:38.681Z,1003.35
2023-01-21T00:51:38.672Z,1003.32
2023-01-21T00:52:38.659Z,1003.35
2023-01-21T00:53:38.666Z,1003.37
2023-01-21T00:54:38.644Z,1003.39
2023-01-21T00:55:38.634Z,1003.44
2023-01-21T00:56:38.629Z,1003.44
2023-01-21T00:57:38.645Z,1003.44
2023-01-21T00:58:38.618Z,1003.45
2023-01-21T00:59:38.598Z,1003.46
2023-01-21T01:00:38.595Z,1003.51
2023-01-21T01:01:38.689Z,1003.53
2023-01-21T01:02:38.641Z,1003.51
2023-01-21T01:03:38.565Z,1003.53
2023-01-21T01:04:38.567Z,1003.54
2023-01-21T01:05:38.527Z,1003.57
2023-01-21T01:06:38.511Z,1003.57
2023-01-21T01:07:38.492Z,1003.58
2023-01-21T01:08:38.509Z,1003.59
2023-01-21T01:09:38.489Z,1003.61
2023-01-21T01:10:38.519Z,1003.63
2023-01-21T01:11:38.480Z,1003.61
2023-01-21T01:12:38.436Z,1003.68
2023-01-21T01:13:38.441Z,1003.67
2023-01-21T01:14:38.428Z,1003.72
2023-01-21T01:15:38.458Z,1003.73
2023-01-21T01:16:38.412Z,1003.80
2023-01-21T01:17:38.385Z,1003.83
2023-01-21T01:18:38.376Z,1003.84
2023-01-21T01:19:38.381Z,1003.87
2023-01-21T01:20:38.355Z,1003.92
2023-01-21T01:21:38.372Z,1003.92
2023-01-21T01:22:38.338Z,1003.88
2023-01-21T01:23:38.347Z,1003.92
2023-01-21T01:24:38.319Z,1003.92
2023-01-21T01:25:38.319Z,1003.94
2023-01-21T01:26:39.523Z,1003.97
2023-01-21T01:27:38.295Z,1003.99
2023-01-21T01:28:38.283Z,1004.01
2023-01-21T01:29:38.250Z,1004.04
2023-01-21T01:30:38.309Z,1004.09
2023-01-21T01:31:38.419Z,1004.05
2023-01-21T01:32:38.225Z,1004.06
2023-01-21T01:33:38.212Z,1004.11
2023-01-21T01:34:38.194Z,1004.12
2023-01-21T01:35:38.197Z,1004.12
2023-01-21T01:36:38.173Z,1004.13
2023-01-21T01:37:38.170Z,1004.18
2023-01-21T01:38:38.156Z,1004.19
2023-01-21T01:39:38.147Z,1004.20
2023-01-21T01:40:38.126Z,1004.24
2023-01-21T01:41:38.136Z,1004.25
2023-01-21T01:42:38.136Z,1004.22
2023-01-21T01:43:38.121Z,1004.17
2023-01-21T01:44:38.096Z,1004.22
2023-01-21T01:45:38.074Z,1004.24
2023-01-21T01:46:38.119Z,1004.29
2023-01-21T01:47:38.056Z,1004.33
2023-01-21T01:48:38.051Z,1004.36
2023-01-21T01:49:38.056Z,1004.34
2023-01-21T01:50:38.018Z,1004.36
2023-01-21T01:51:38.033Z,1004.39
2023-01-21T01:52:37.999Z,1004.44
2023-01-21T01:53:37.994Z,1004.43
2023-01-21T01:54:37.980Z,1004.44
2023-01-21T01:55:38.019Z,1004.45
2023-01-21T01:56:37.964Z,1004.48
2023-01-21T01:57:37.957Z,1004.45
2023-01-21T01:58:37.932Z,1004.47
2023-01-21T01:59:37.931Z,1004.53
2023-01-21T02:00:37.917Z,1004.53
2023-01-21T02:01:37.946Z,1004.54
2023-01-21T02:02:37.929Z,1004.55
2023-01-21T02:03:37.888Z,1004.57
2023-01-21T02:04:37.863Z,1004.58
2023-01-21T02:05:37.875Z,1004.58
2023-01-21T02:06:37.844Z,1004.58
2023-01-21T02:07:37.836Z,1004.57
2023-01-21T02:08:37.821Z,1004.60
2023-01-21T02:09:37.810Z,1004.61
2023-01-21T02:10:37.840Z,1004.59
2023-01-21T02:11:37.808Z,1004.59
2023-01-21T02:12:37.776Z,1004.62
2023-01-21T02:13:37.767Z,1004.60
2023-01-21T02:14:37.760Z,1004.64
2023-01-21T02:15:37.750Z,1004.69
2023-01-21T02:16:37.831Z,1004.70
2023-01-21T02:17:37.753Z,1004.69
2023-01-21T02:18:37.722Z,1004.66
2023-01-21T02:19:37.692Z,1004.72
2023-01-21T02:20:37.700Z,1004.70
2023-01-21T02:21:37.740Z,1004.73
2023-01-21T02:22:37.677Z,1004.74
2023-01-21T02:23:37.658Z,1004.82
2023-01-21T02:24:37.654Z,1004.76
2023-01-21T02:25:37.629Z,1004.81
2023-01-21T02:26:37.632Z,1004.77
2023-01-21T02:27:37.638Z,1004.79
2023-01-21T02:28:37.614Z,1004.76
2023-01-21T02:29:37.586Z,1004.78
2023-01-21T02:30:37.610Z,1004.78
2023-01-21T02:31:37.608Z,1004.79
2023-01-21T02:32:37.554Z,1004.79
2023-01-21T02:33:37.559Z,1004.82
2023-01-21T02:34:37.540Z,1004.81
2023-01-21T02:35:37.534Z,1004.80
2023-01-21T02:36:37.513Z,1004.78
2023-01-21T02:37:37.508Z,1004.83
2023-01-21T02:38:37.527Z,1004.77
2023-01-21T02:39:37.484Z,1004.81
2023-01-21T02:40:37.471Z,1004.83
2023-01-21T02:41:37.453Z,1004.84
2023-01-21T02:42:37.455Z,1004.85
2023-01-21T02:43:37.447Z,1004.82
2023-01-21T02:44:37.445Z,1004.89
2023-01-21T02:45:37.425Z,1004.85
2023-01-21T02:46:37.452Z,1004.83
2023-01-21T02:47:37.390Z,1004.89
2023-01-21T02:48:37.394Z,1004.89
2023-01-21T02:49:37.395Z,1004.95
2023-01-21T02:50:37.390Z,1004.95
2023-01-21T02:51:37.352Z,1004.98
2023-01-21T02:52:37.346Z,1005.04
2023-01-21T02:53:37.343Z,1004.99
2023-01-21T02:54:37.340Z,1005.09
2023-01-21T02:55:37.304Z,1005.08
2023-01-21T02:56:37.314Z,1005.09
2023-01-21T02:57:37.279Z,1005.07
2023-01-21T02:58:37.269Z,1005.10
2023-01-21T02:59:37.264Z,1005.11
2023-01-21T03:00:37.304Z,1005.12
2023-01-21T03:01:37.272Z,1005.14
2023-01-21T03:02:37.229Z,1005.15
2023-01-21T03:03:37.449Z,1005.16
2023-01-21T03:04:37.214Z,1005.18
2023-01-21T03:05:37.189Z,1005.20
2023-01-21T03:06:37.217Z,1005.20
2023-01-21T03:07:37.183Z,1005.28
2023-01-21T03:08:37.169Z,1005.21
2023-01-21T03:09:37.167Z,1005.24
2023-01-21T03:10:37.141Z,1005.30
2023-01-21T03:11:37.130Z,1005.31
2023-01-21T03:12:37.161Z,1005.30
2023-01-21T03:13:37.122Z,1005.29
2023-01-21T03:14:37.096Z,1005.28
2023-01-21T03:15:37.109Z,1005.32
2023-01-21T03:16:37.228Z,1005.30
2023-01-21T03:17:37.086Z,1005.31
2023-01-21T03:18:37.079Z,1005.32
2023-01-21T03:19:37.068Z,1005.35
2023-01-21T03:20:37.040Z,1005.32
2023-01-21T03:21:37.025Z,1005.35
2023-01-21T03:22:37.008Z,1005.36
2023-01-21T03:23:37.016Z,1005.36
2023-01-21T03:24:37.011Z,1005.38
2023-01-21T03:25:36.985Z,1005.38
2023-01-21T03:26:36.975Z,1005.38
2023-01-21T03:27:36.987Z,1005.39
2023-01-21T03:28:36.943Z,1005.35
2023-01-21T03:29:36.982Z,1005.38
2023-01-21T03:30:36.953Z,1005.40
2023-01-21T03:31:36.928Z,1005.42
2023-01-21T03:32:36.923Z,1005.35
2023-01-21T03:33:36.910Z,1005.39
2023-01-21T03:34:36.902Z,1005.39
2023-01-21T03:35:36.859Z,1005.40
2023-01-21T03:36:36.865Z,1005.42
2023-01-21T03:37:36.836Z,1005.39
2023-01-21T03:38:36.838Z,1005.43
2023-01-21T03:39:36.824Z,1005.43
2023-01-21T03:40:36.837Z,1005.44
2023-01-21T03:41:36.798Z,1005.47
2023-01-21T03:42:36.801Z,1005.46
2023-01-21T03:43:36.775Z,1005.48
2023-01-21T03:44:36.774Z,1005.52
2023-01-21T03:45:36.851Z,1005.49
2023-01-21T03:46:36.764Z,1005.50
2023-01-21T03:47:36.748Z,1005.53
2023-01-21T03:48:36.719Z,1005.49
2023-01-21T03:49:36.736Z,1005.53
2023-01-21T03:50:36.706Z,1005.54
2023-01-21T03:51:36.697Z,1005.54
2023-01-21T03:52:36.681Z,1005.58
2023-01-21T03:53:36.692Z,1005.57
2023-01-21T03:54:36.673Z,1005.60
2023-01-21T03:55:36.653Z,1005.60
2023-01-21T03:56:36.679Z,1005.65
2023-01-21T03:57:36.635Z,1005.63
2023-01-21T03:58:36.617Z,1005.67
2023-01-21T03:59:36.601Z,1005.63
2023-01-21T04:00:36.645Z,1005.64
2023-01-21T04:01:36.587Z,1005.66
2023-01-21T04:02:36.589Z,1005.66
2023-01-21T04:03:36.566Z,1005.63
2023-01-21T04:04:36.552Z,1005.65
2023-01-21T04:05:36.543Z,1005.65
2023-01-21T04:06:36.525Z,1005.69
2023-01-21T04:07:36.523Z,1005.67
2023-01-21T04:08:36.532Z,1005.73
2023-01-21T04:09:36.500Z,1005.71
2023-01-21T04:10:36.505Z,1005.75
2023-01-21T04:11:36.476Z,1005.74
2023-01-21T04:12:36.469Z,1005.76
2023-01-21T04:13:36.453Z,1005.76
2023-01-21T04:14:36.456Z,1005.76
2023-01-21T04:15:36.436Z,1005.84
2023-01-21T04:16:36.518Z,1005.77
2023-01-21T04:17:36.436Z,1005.80
2023-01-21T04:18:36.395Z,1005.79
2023-01-21T04:19:36.432Z,1005.75
2023-01-21T04:20:36.381Z,1005.78
2023-01-21T04:21:36.373Z,1005.85
2023-01-21T04:22:36.363Z,1005.87
2023-01-21T04:23:36.346Z,1005.85
2023-01-21T04:24:36.371Z,1005.89
2023-01-21T04:25:36.325Z,1005.88
2023-01-21T04:26:36.308Z,1005.92
2023-01-21T04:27:36.320Z,1005.94
2023-01-21T04:28:36.319Z,1005.92
2023-01-21T04:29:36.272Z,1005.91
2023-01-21T04:30:36.291Z,1005.93
2023-01-21T04:31:36.296Z,1005.95
2023-01-21T04:32:36.252Z,1005.94
2023-01-21T04:33:36.240Z,1005.91
2023-01-21T04:34:36.223Z,1005.90
2023-01-21T04:35:36.222Z,1005.89
2023-01-21T04:36:36.204Z,1005.97
2023-01-21T04:37:36.188Z,1005.99
2023-01-21T04:38:36.189Z,1005.99
2023-01-21T04:39:36.178Z,1005.99
2023-01-21T04:40:36.149Z,1005.97
2023-01-21T04:41:36.178Z,1005.97
2023-01-21T04:42:36.131Z,1006.00
2023-01-21T04:43:36.122Z,1005.97
2023-01-21T04:44:36.144Z,1005.98
2023-01-21T04:45:36.121Z,1006.03
2023-01-21T04:46:36.084Z,1006.00
2023-01-21T04:47:36.222Z,1006.06
2023-01-21T04:48:36.081Z,1006.05
2023-01-21T04:49:36.056Z,1006.06
2023-01-21T04:50:36.089Z,1006.05
2023-01-21T04:51:36.072Z,1006.11
2023-01-21T04:52:36.017Z,1006.08
2023-01-21T04:53:36.042Z,1006.12
2023-01-21T04:54:35.999Z,1006.09
2023-01-21T04:55:35.987Z,1006.10
2023-01-21T04:56:35.983Z,1006.10
2023-01-21T04:57:35.995Z,1006.13
2023-01-21T04:58:35.987Z,1006.09
2023-01-21T04:59:35.958Z,1006.09
2023-01-21T05:00:35.949Z,1006.10
2023-01-21T05:01:35.925Z,1006.11
2023-01-21T05:02:35.995Z,1006.13
2023-01-21T05:03:35.923Z,1006.17
2023-01-21T05:04:35.919Z,1006.18
2023-01-21T05:05:35.894Z,1006.17
2023-01-21T05:06:35.887Z,1006.17
2023-01-21T05:07:35.853Z,1006.19
2023-01-21T05:08:35.858Z,1006.21
2023-01-21T05:09:35.854Z,1006.30
2023-01-21T05:10:35.822Z,1006.23
2023-01-21T05:11:35.815Z,1006.28
2023-01-21T05:12:35.830Z,1006.27
2023-01-21T05:13:35.795Z,1006.30
2023-01-21T05:14:35.789Z,1006.25
2023-01-21T05:15:35.820Z,1006.31
2023-01-21T05:16:35.825Z,1006.25
2023-01-21T05:17:35.765Z,1006.30
2023-01-21T05:18:35.763Z,1006.32
2023-01-21T05:19:35.720Z,1006.33
2023-01-21T05:20:35.735Z,1006.31
2023-01-21T05:21:35.698Z,1006.29
2023-01-21T05:22:35.699Z,1006.27
2023-01-21T05:23:35.718Z,1006.25
2023-01-21T05:24:35.670Z,1006.31
2023-01-21T05:25:35.663Z,1006.29
2023-01-21T05:26:35.649Z,1006.28
2023-01-21T05:27:35.666Z,1006.24
2023-01-21T05:28:35.636Z,1006.31
2023-01-21T05:29:35.619Z,1006.32
2023-01-21T05:30:35.685Z,1006.35
2023-01-21T05:31:35.692Z,1006.35
2023-01-21T05:32:35.594Z,1006.36
2023-01-21T05:33:35.584Z,1006.37
2023-01-21T05:34:35.563Z,1006.38
2023-01-21T05:35:35.594Z,1006.41
2023-01-21T05:36:35.557Z,1006.41
2023-01-21T05:37:35.518Z,1006.40
2023-01-21T05:38:35.513Z,1006.39
2023-01-21T05:39:35.528Z,1006.42
2023-01-21T05:40:35.517Z,1006.46
2023-01-21T05:41:35.493Z,1006.43
2023-01-21T05:42:35.461Z,1006.41
2023-01-21T05:43:35.464Z,1006.46
2023-01-21T05:44:35.457Z,1006.46
2023-01-21T05:45:35.448Z,1006.49
2023-01-21T05:46:35.454Z,1006.48
2023-01-21T05:47:35.441Z,1006.51
2023-01-21T05:48:35.436Z,1006.50
2023-01-21T05:49:35.409Z,1006.49
2023-01-21T05:50:35.407Z,1006.48
2023-01-21T05:51:35.376Z,1006.46
2023-01-21T05:52:35.361Z,1006.43
2023-01-21T05:53:35.356Z,1006.45
2023-01-21T05:54:35.350Z,1006.49
2023-01-21T05:55:35.333Z,1006.50
2023-01-21T05:56:35.458Z,1006.54
2023-01-21T05:57:35.298Z,1006.54
2023-01-21T05:58:35.297Z,1006.52
2023-01-21T05:59:35.300Z,1006.55
2023-01-21T06:00:35.293Z,1006.58
2023-01-21T06:01:35.283Z,1006.61
2023-01-21T06:02:35.287Z,1006.61
2023-01-21T06:03:35.306Z,1006.64
2023-01-21T06:04:35.243Z,1006.67
2023-01-21T06:05:35.233Z,1006.68
2023-01-21T06:06:35.253Z,1006.69
2023-01-21T06:07:35.219Z,1006.73
2023-01-21T06:08:35.193Z,1006.83
2023-01-21T06:09:35.161Z,1006.75
2023-01-21T06:10:35.165Z,1006.77
2023-01-21T06:11:35.159Z,1006.80
2023-01-21T06:12:35.140Z,1006.84
2023-01-21T06:13:35.133Z,1006.83
2023-01-21T06:14:35.133Z,1006.84
2023-01-21T06:15:35.144Z,1006.88
2023-01-21T06:16:35.118Z,1006.88
2023-01-21T06:17:35.086Z,1006.87
2023-01-21T06:18:35.090Z,1006.94
2023-01-21T06:19:35.059Z,1006.97
2023-01-21T06:20:35.094Z,1006.94
2023-01-21T06:21:35.107Z,1006.95
2023-01-21T06:22:35.063Z,1007.00
2023-01-21T06:23:35.019Z,1007.01
2023-01-21T06:24:35.007Z,1007.01
2023-01-21T06:25:35.002Z,1007.00
2023-01-21T06:26:34.990Z,1007.06
2023-01-21T06:27:34.974Z,1007.10
2023-01-21T06:28:34.985Z,1007.14
2023-01-21T06:29:34.966Z,1007.14
2023-01-21T06:30:34.960Z,1007.15
2023-01-21T06:31:35.022Z,1007.17
2023-01-21T06:32:34.930Z,1007.18
2023-01-21T06:33:34.920Z,1007.20
2023-01-21T06:34:34.921Z,1007.21
2023-01-21T06:35:34.902Z,1007.19
2023-01-21T06:36:34.879Z,1007.21
2023-01-21T06:37:34.868Z,1007.25
2023-01-21T06:38:34.875Z,1007.24
2023-01-21T06:39:34.847Z,1007.27
2023-01-21T06:40:34.844Z,1007.30
2023-01-21T06:41:34.823Z,1007.29
2023-01-21T06:42:34.830Z,1007.30
2023-01-21T06:43:34.810Z,1007.31
2023-01-21T06:44:34.784Z,1007.28
2023-01-21T06:45:34.787Z,1007.27
2023-01-21T06:46:34.840Z,1007.28
2023-01-21T06:47:34.753Z,1007.26
2023-01-21T06:48:34.751Z,1007.26
2023-01-21T06:49:34.724Z,1007.28
2023-01-21T06:50:34.738Z,1007.28
2023-01-21T06:51:34.723Z,1007.32
2023-01-21T06:52:34.695Z,1007.29
2023-01-21T06:53:34.682Z,1007.33
2023-01-21T06:54:34.711Z,1007.30
2023-01-21T06:55:34.672Z,1007.27
2023-01-21T06:56:34.671Z,1007.31
2023-01-21T06:57:34.655Z,1007.31
2023-01-21T06:58:34.651Z,1007.28
2023-01-21T06:59:34.656Z,1007.30
2023-01-21T07:00:34.626Z,1007.26
2023-01-21T07:01:34.651Z,1007.26
2023-01-21T07:02:34.672Z,1007.25
2023-01-21T07:03:34.610Z,1007.27
2023-01-21T07:04:34.614Z,1007.28
2023-01-21T07:05:34.559Z,1007.30
2023-01-21T07:06:34.563Z,1007.31
2023-01-21T07:07:34.550Z,1007.33
2023-01-21T07:08:34.537Z,1007.42
2023-01-21T07:09:34.518Z,1007.42
2023-01-21T07:10:34.507Z,1007.41
2023-01-21T07:11:34.494Z,1007.43
2023-01-21T07:12:34.556Z,1007.45
2023-01-21T07:13:34.460Z,1007.47
2023-01-21T07:14:34.464Z,1007.45
2023-01-21T07:15:34.454Z,1007.54
2023-01-21T07:16:34.474Z,1007.53
2023-01-21T07:17:34.420Z,1007.55
2023-01-21T07:18:34.403Z,1007.62
2023-01-21T07:19:34.422Z,1007.60
2023-01-21T07:20:34.420Z,1007.64
2023-01-21T07:21:34.383Z,1007.67
2023-01-21T07:22:34.378Z,1007.67
2023-01-21T07:23:34.356Z,1007.66
2023-01-21T07:24:34.366Z,1007.65
2023-01-21T07:25:34.382Z,1007.65
2023-01-21T07:26:34.481Z,1007.66
2023-01-21T07:27:34.357Z,1007.70
2023-01-21T07:28:34.705Z,1007.68
2023-01-21T07:29:34.463Z,1007.70
2023-01-21T07:30:34.280Z,1007.72
2023-01-21T07:31:34.466Z,1007.73
2023-01-21T07:32:34.248Z,1007.73
2023-01-21T07:33:34.249Z,1007.71
2023-01-21T07:34:34.225Z,1007.72
2023-01-21T07:35:34.258Z,1007.75
2023-01-21T07:36:34.219Z,1007.79
2023-01-21T07:37:34.206Z,1007.85
2023-01-21T07:38:34.196Z,1007.86
2023-01-21T07:39:34.179Z,1007.85
2023-01-21T07:40:34.200Z,1007.86
2023-01-21T07:41:34.173Z,1007.86
2023-01-21T07:42:34.164Z,1007.86
2023-01-21T07:43:34.133Z,1007.88
2023-01-21T07:44:34.141Z,1007.86
2023-01-21T07:45:34.121Z,1007.88
2023-01-21T07:46:34.125Z,1007.88
2023-01-21T07:47:34.100Z,1007.86
2023-01-21T07:48:34.096Z,1007.87
2023-01-21T07:49:34.063Z,1007.87
2023-01-21T07:50:34.128Z,1007.82
2023-01-21T07:51:34.061Z,1007.86
2023-01-21T07:52:34.460Z,1007.88
2023-01-21T07:53:35.152Z,1007.87
2023-01-21T07:54:34.017Z,1007.89
2023-01-21T07:55:33.994Z,1007.90
2023-01-21T07:56:34.008Z,1007.86
2023-01-21T07:57:34.000Z,1007.87
2023-01-21T07:58:33.961Z,1007.85
2023-01-21T07:59:33.974Z,1007.88
2023-01-21T08:00:33.945Z,1007.88
2023-01-21T08:01:33.993Z,1007.89
2023-01-21T08:02:34.058Z,1007.90
2023-01-21T08:03:33.914Z,1007.91
2023-01-21T08:04:33.913Z,1007.91
2023-01-21T08:05:33.918Z,1007.93
2023-01-21T08:06:33.895Z,1007.91
2023-01-21T08:07:33.900Z,1007.96
2023-01-21T08:08:33.863Z,1008.01
2023-01-21T08:09:33.975Z,1007.98
2023-01-21T08:10:33.841Z,1007.96
2023-01-21T08:11:34.050Z,1007.99
2023-01-21T08:12:33.825Z,1007.99
2023-01-21T08:13:33.799Z,1007.96
2023-01-21T08:14:33.803Z,1007.97
2023-01-21T08:15:33.782Z,1007.99
2023-01-21T08:16:33.835Z,1008.01
2023-01-21T08:17:33.786Z,1008.10
2023-01-21T08:18:33.744Z,1008.04
2023-01-21T08:19:33.764Z,1008.07
2023-01-21T08:20:33.724Z,1008.05
2023-01-21T08:21:33.739Z,1008.09
2023-01-21T08:22:33.729Z,1008.07
2023-01-21T08:23:33.686Z,1008.06
2023-01-21T08:24:33.686Z,1008.07
2023-01-21T08:25:33.699Z,1008.11
2023-01-21T08:26:33.662Z,1008.15
2023-01-21T08:27:33.664Z,1008.20
2023-01-21T08:28:33.643Z,1008.20
2023-01-21T08:29:33.638Z,1008.18
2023-01-21T08:30:33.650Z,1008.21
2023-01-21T08:31:33.649Z,1008.21
2023-01-21T08:32:33.598Z,1008.16
2023-01-21T08:33:33.607Z,1008.24
2023-01-21T08:34:33.572Z,1008.19
2023-01-21T08:35:33.821Z,1008.17
2023-01-21T08:36:33.546Z,1008.21
2023-01-21T08:37:33.559Z,1008.20
2023-01-21T08:38:33.570Z,1008.19
2023-01-21T08:39:33.522Z,1008.19
2023-01-21T08:40:33.534Z,1008.25
2023-01-21T08:41:33.963Z,1008.22
2023-01-21T08:42:33.506Z,1008.25
2023-01-21T08:43:33.477Z,1008.32
2023-01-21T08:44:33.482Z,1008.26
2023-01-21T08:45:33.502Z,1008.22
2023-01-21T08:46:33.454Z,1008.29
2023-01-21T08:47:33.463Z,1008.37
2023-01-21T08:48:33.410Z,1008.31
2023-01-21T08:49:33.588Z,1008.36
2023-01-21T08:50:33.395Z,1008.37
2023-01-21T08:51:33.386Z,1008.39
2023-01-21T08:52:33.392Z,1008.33
2023-01-21T08:53:33.364Z,1008.35
2023-01-21T08:54:33.362Z,1008.37
2023-01-21T08:55:33.399Z,1008.37
2023-01-21T08:56:33.345Z,1008.37
2023-01-21T08:57:33.312Z,1008.33
2023-01-21T08:58:33.334Z,1008.39
2023-01-21T08:59:33.294Z,1008.42
2023-01-21T09:00:33.350Z,1008.42
2023-01-21T09:01:33.317Z,1008.40
2023-01-21T09:02:33.278Z,1008.43
2023-01-21T09:03:33.254Z,1008.47
2023-01-21T09:04:33.261Z,1008.48
2023-01-21T09:05:33.432Z,1008.47
2023-01-21T09:06:33.225Z,1008.46
2023-01-21T09:07:33.211Z,1008.50
2023-01-21T09:08:33.204Z,1008.53
2023-01-21T09:09:33.224Z,1008.50
2023-01-21T09:10:33.182Z,1008.51
2023-01-21T09:11:33.173Z,1008.49
2023-01-21T09:12:33.148Z,1008.54
2023-01-21T09:13:33.169Z,1008.54
2023-01-21T09:14:33.145Z,1008.59
2023-01-21T09:15:33.164Z,1008.53
2023-01-21T09:16:33.127Z,1008.55
2023-01-21T09:17:33.096Z,1008.61
2023-01-21T09:18:33.108Z,1008.57
2023-01-21T09:19:33.115Z,1008.55
2023-01-21T09:20:33.059Z,1008.53
2023-01-21T09:21:33.052Z,1008.53
2023-01-21T09:22:33.046Z,1008.57
2023-01-21T09:23:33.026Z,1008.56
2023-01-21T09:24:33.045Z,1008.59
2023-01-21T09:25:33.028Z,1008.60
2023-01-21T09:26:33.014Z,1008.59
2023-01-21T09:27:33.009Z,1008.63
2023-01-21T09:28:32.995Z,1008.62
2023-01-21T09:29:32.965Z,1008.65
2023-01-21T09:30:32.967Z,1008.62
2023-01-21T09:31:32.985Z,1008.70
2023-01-21T09:32:32.933Z,1008.65
2023-01-21T09:33:32.935Z,1008.67
2023-01-21T09:34:35.447Z,1008.65
2023-01-21T09:35:32.886Z,1008.69
2023-01-21T09:36:32.885Z,1008.73
2023-01-21T09:37:32.891Z,1008.75
2023-01-21T09:38:32.855Z,1008.73
2023-01-21T09:39:32.870Z,1008.67
2023-01-21T09:40:32.829Z,1008.75
2023-01-21T09:41:32.825Z,1008.77
2023-01-21T09:42:32.845Z,1008.76
2023-01-21T09:43:32.843Z,1008.79
2023-01-21T09:44:32.793Z,1008.77
2023-01-21T09:45:32.801Z,1008.84
2023-01-21T09:46:32.774Z,1008.84
2023-01-21T09:47:32.775Z,1008.86
2023-01-21T09:48:32.753Z,1008.93
2023-01-21T09:49:32.759Z,1008.93
2023-01-21T09:50:32.753Z,1008.85
2023-01-21T09:51:32.720Z,1008.90
2023-01-21T09:52:32.720Z,1008.92
2023-01-21T09:53:32.700Z,1008.92
2023-01-21T09:54:32.725Z,1008.97
2023-01-21T09:55:32.696Z,1008.97
2023-01-21T09:56:32.686Z,1008.90
2023-01-21T09:57:32.646Z,1009.02
2023-01-21T09:58:32.639Z,1008.99
2023-01-21T09:59:32.626Z,1009.00
2023-01-21T10:00:32.635Z,1008.98
2023-01-21T10:01:32.649Z,1009.08
2023-01-21T10:02:32.602Z,1009.02
2023-01-21T10:03:32.600Z,1009.11
2023-01-21T10:04:32.657Z,1009.07
2023-01-21T10:05:32.782Z,1009.07
2023-01-21T10:06:32.587Z,1009.11
2023-01-21T10:07:32.553Z,1009.13
2023-01-21T10:08:32.527Z,1009.05
2023-01-21T10:09:32.523Z,1009.08
2023-01-21T10:10:32.572Z,1009.06
2023-01-21T10:11:32.502Z,1009.07
2023-01-21T10:12:32.564Z,1009.15
2023-01-21T10:13:33.662Z,1009.13
2023-01-21T10:14:32.729Z,1009.07
2023-01-21T10:15:32.455Z,1009.06
2023-01-21T10:16:32.469Z,1009.07
2023-01-21T10:17:33.356Z,1009.06
2023-01-21T10:18:33.436Z,1009.03
2023-01-21T10:19:32.416Z,1009.08
2023-01-21T10:20:32.523Z,1009.08
2023-01-21T10:21:32.590Z,1009.08
2023-01-21T10:22:32.478Z,1009.07
2023-01-21T10:23:32.578Z,1009.05
2023-01-21T10:24:32.389Z,1008.99
2023-01-21T10:25:33.038Z,1009.04
2023-01-21T10:26:32.677Z,1009.08
2023-01-21T10:27:32.376Z,1009.04
2023-01-21T10:28:32.378Z,1009.09
2023-01-21T10:29:32.462Z,1009.10
2023-01-21T10:30:32.418Z,1009.05
2023-01-21T10:31:32.481Z,1009.09
2023-01-21T10:32:32.512Z,1009.10
2023-01-21T10:33:32.289Z,1009.09
2023-01-21T10:34:32.261Z,1009.07
2023-01-21T10:35:32.226Z,1009.08
2023-01-21T10:36:35.005Z,1009.04
2023-01-21T10:37:32.227Z,1009.05
2023-01-21T10:38:32.198Z,1009.01
2023-01-21T10:39:32.187Z,1009.07
2023-01-21T10:40:32.194Z,1009.03
2023-01-21T10:41:32.179Z,1009.14
2023-01-21T10:42:32.155Z,1009.13
2023-01-21T10:43:32.143Z,1009.14
2023-01-21T10:44:32.133Z,1009.15
2023-01-21T10:45:32.123Z,1009.19
2023-01-21T10:46:32.120Z,1009.13
2023-01-21T10:47:32.141Z,1009.11
2023-01-21T10:48:32.091Z,1009.10
2023-01-21T10:49:32.076Z,1009.14
2023-01-21T10:50:32.113Z,1009.15
2023-01-21T10:51:32.074Z,1009.21
2023-01-21T10:52:32.057Z,1009.18
2023-01-21T10:53:32.035Z,1009.29
2023-01-21T10:54:32.037Z,1009.18
2023-01-21T10:55:32.020Z,1009.28
2023-01-21T10:56:32.021Z,1009.27
2023-01-21T10:57:32.000Z,1009.21
2023-01-21T10:58:31.986Z,1009.28
2023-01-21T10:59:33.368Z,1009.30
2023-01-21T11:00:31.970Z,1009.28
2023-01-21T11:01:32.005Z,1009.27
2023-01-21T11:02:32.025Z,1009.27
2023-01-21T11:03:31.998Z,1009.28
2023-01-21T11:04:31.924Z,1009.26
2023-01-21T11:05:31.942Z,1009.28
2023-01-21T11:06:31.927Z,1009.32
2023-01-21T11:07:32.164Z,1009.23
2023-01-21T11:08:31.970Z,1009.20
2023-01-21T11:09:31.866Z,1009.20
2023-01-21T11:10:31.853Z,1009.21
2023-01-21T11:11:31.846Z,1009.19
2023-01-21T11:12:31.862Z,1009.23
2023-01-21T11:13:31.811Z,1009.23
2023-01-21T11:14:31.804Z,1009.21
2023-01-21T11:15:31.834Z,1009.23
2023-01-21T11:16:31.785Z,1009.19
2023-01-21T11:17:31.801Z,1009.18
2023-01-21T11:18:31.766Z,1009.21
2023-01-21T11:19:31.747Z,1009.18
2023-01-21T11:20:31.762Z,1009.18
2023-01-21T11:21:31.723Z,1009.22
2023-01-21T11:22:31.718Z,1009.21
2023-01-21T11:23:31.701Z,1009.14
2023-01-21T11:24:31.698Z,1009.11
2023-01-21T11:25:31.690Z,1009.18
2023-01-21T11:26:31.695Z,1009.16
2023-01-21T11:27:31.708Z,1009.19
2023-01-21T11:28:31.649Z,1009.17
2023-01-21T11:29:31.647Z,1009.21
2023-01-21T11:30:48.684Z,1009.18
2023-01-21T11:31:31.689Z,1009.15
2023-01-21T11:32:31.613Z,1009.15
2023-01-21T11:33:31.597Z,1009.16
2023-01-21T11:34:31.615Z,1009.19
2023-01-21T11:35:31.566Z,1009.25
2023-01-21T11:36:31.557Z,1009.19
2023-01-21T11:37:31.561Z,1009.15
2023-01-21T11:38:31.532Z,1009.21
2023-01-21T11:39:31.578Z,1009.14
2023-01-21T11:40:31.511Z,1009.13
2023-01-21T11:41:31.516Z,1009.18
2023-01-21T11:42:31.531Z,1009.16
2023-01-21T11:43:31.499Z,1009.15
2023-01-21T11:44:31.469Z,1009.17
2023-01-21T11:45:31.463Z,1009.15
2023-01-21T11:46:31.594Z,1009.15
2023-01-21T11:47:31.442Z,1009.11
2023-01-21T11:48:31.439Z,1009.18
2023-01-21T11:49:31.473Z,1009.15
2023-01-21T11:50:31.406Z,1009.14
2023-01-21T11:51:31.393Z,1009.15
2023-01-21T11:52:31.403Z,1009.15
2023-01-21T11:53:31.427Z,1009.12
2023-01-21T11:54:31.358Z,1009.19
2023-01-21T11:55:31.352Z,1009.21
2023-01-21T11:56:31.359Z,1009.21
2023-01-21T11:57:31.340Z,1009.19
2023-01-21T11:58:31.393Z,1009.21
2023-01-21T11:59:33.916Z,1009.17
2023-01-21T12:00:31.309Z,1009.22
2023-01-21T12:01:31.284Z,1009.18
2023-01-21T12:02:31.371Z,1009.17
2023-01-21T12:03:31.290Z,1009.19
2023-01-21T12:04:31.268Z,1009.23
2023-01-21T12:05:31.252Z,1009.24